sensor_id;sensor_type;location;lat;lon;timestamp;pressure;altitude;pressure_sealevel;temperature;humidity
60345;BME280;46188;52.324;8.032;2023-04-04T00:01:54;101935.84;;;0.46;88.71
60345;BME280;46188;52.324;8.032;2023-04-04T00:04:20;101941.72;;;0.43;88.90
60345;BME280;46188;52.324;8.032;2023-04-04T00:06:45;101936.28;;;0.40;89.19
60345;BME280;46188;52.324;8.032;2023-04-04T00:09:11;101926.34;;;0.34;90.07
60345;BME280;46188;52.324;8.032;2023-04-04T00:11:37;101924.44;;;0.32;90.49
60345;BME280;46188;52.324;8.032;2023-04-04T00:14:02;101932.22;;;0.32;90.77
60345;BME280;46188;52.324;8.032;2023-04-04T00:16:29;101923.31;;;0.28;91.05
60345;BME280;46188;52.324;8.032;2023-04-04T00:18:54;101927.31;;;0.25;91.37
60345;BME280;46188;52.324;8.032;2023-04-04T00:21:20;101923.38;;;0.18;91.72
60345;BME280;46188;52.324;8.032;2023-04-04T00:23:45;101919.09;;;0.18;91.51
60345;BME280;46188;52.324;8.032;2023-04-04T00:26:10;101926.06;;;0.20;91.64
60345;BME280;46188;52.324;8.032;2023-04-04T00:28:36;101925.41;;;0.22;91.91
60345;BME280;46188;52.324;8.032;2023-04-04T00:31:01;101924.94;;;0.16;92.27
60345;BME280;46188;52.324;8.032;2023-04-04T00:33:26;101924.59;;;0.11;92.28
60345;BME280;46188;52.324;8.032;2023-04-04T00:35:51;101924.25;;;0.07;92.91
60345;BME280;46188;52.324;8.032;2023-04-04T00:38:17;101927.28;;;0.01;93.39
60345;BME280;46188;52.324;8.032;2023-04-04T00:40:47;101920.19;;;-0.02;93.63
60345;BME280;46188;52.324;8.032;2023-04-04T00:43:13;101925.91;;;-0.06;94.46
60345;BME280;46188;52.324;8.032;2023-04-04T00:45:39;101927.72;;;-0.05;93.95
60345;BME280;46188;52.324;8.032;2023-04-04T00:48:05;101925.91;;;-0.06;93.75
60345;BME280;46188;52.324;8.032;2023-04-04T00:50:30;101923.19;;;-0.07;93.50
60345;BME280;46188;52.324;8.032;2023-04-04T00:52:56;101920.34;;;-0.10;93.93
60345;BME280;46188;52.324;8.032;2023-04-04T00:55:22;101918.56;;;-0.11;94.22
60345;BME280;46188;52.324;8.032;2023-04-04T00:57:47;101926.22;;;-0.13;95.13
60345;BME280;46188;52.324;8.032;2023-04-04T01:00:14;101913.78;;;-0.17;95.37
60345;BME280;46188;52.324;8.032;2023-04-04T01:02:40;101924.03;;;-0.19;95.36
60345;BME280;46188;52.324;8.032;2023-04-04T01:05:05;101919.97;;;-0.15;95.52
60345;BME280;46188;52.324;8.032;2023-04-04T01:07:33;101912.56;;;-0.10;94.87
60345;BME280;46188;52.324;8.032;2023-04-04T01:09:59;101906.50;;;-0.11;94.87
60345;BME280;46188;52.324;8.032;2023-04-04T01:12:25;101905.25;;;-0.16;95.24
60345;BME280;46188;52.324;8.032;2023-04-04T01:14:51;101906.34;;;-0.24;95.80
60345;BME280;46188;52.324;8.032;2023-04-04T01:17:16;101905.19;;;-0.28;95.92
60345;BME280;46188;52.324;8.032;2023-04-04T01:20:05;101914.63;;;-0.28;95.87
60345;BME280;46188;52.324;8.032;2023-04-04T01:22:30;101900.13;;;-0.26;96.31
60345;BME280;46188;52.324;8.032;2023-04-04T01:24:57;101908.69;;;-0.27;95.95
60345;BME280;46188;52.324;8.032;2023-04-04T01:27:23;101909.44;;;-0.28;96.29
60345;BME280;46188;52.324;8.032;2023-04-04T01:29:49;101907.44;;;-0.32;96.89
60345;BME280;46188;52.324;8.032;2023-04-04T01:32:18;101908.06;;;-0.35;96.89
60345;BME280;46188;52.324;8.032;2023-04-04T01:34:56;101909.00;;;-0.34;97.27
60345;BME280;46188;52.324;8.032;2023-04-04T01:37:47;101910.53;;;-0.37;97.09
60345;BME280;46188;52.324;8.032;2023-04-04T01:40:23;101905.03;;;-0.41;97.99
60345;BME280;46188;52.324;8.032;2023-04-04T01:42:51;101890.25;;;-0.42;97.00
60345;BME280;46188;52.324;8.032;2023-04-04T01:45:17;101895.06;;;-0.47;97.32
60345;BME280;46188;52.324;8.032;2023-04-04T01:47:43;101881.88;;;-0.50;97.45
60345;BME280;46188;52.324;8.032;2023-04-04T01:50:09;101883.56;;;-0.50;97.89
60345;BME280;46188;52.324;8.032;2023-04-04T01:52:35;101889.53;;;-0.51;97.71
60345;BME280;46188;52.324;8.032;2023-04-04T01:55:00;101887.72;;;-0.52;97.68
60345;BME280;46188;52.324;8.032;2023-04-04T01:57:26;101886.59;;;-0.56;97.40
60345;BME280;46188;52.324;8.032;2023-04-04T01:59:51;101882.75;;;-0.61;98.20
60345;BME280;46188;52.324;8.032;2023-04-04T02:02:17;101885.34;;;-0.61;98.58
60345;BME280;46188;52.324;8.032;2023-04-04T02:04:42;101888.81;;;-0.61;98.62
60345;BME280;46188;52.324;8.032;2023-04-04T02:07:07;101893.88;;;-0.62;98.05
60345;BME280;46188;52.324;8.032;2023-04-04T02:09:33;101888.19;;;-0.68;98.40
60345;BME280;46188;52.324;8.032;2023-04-04T02:11:58;101892.25;;;-0.72;99.44
60345;BME280;46188;52.324;8.032;2023-04-04T02:14:24;101887.84;;;-0.73;99.50
60345;BME280;46188;52.324;8.032;2023-04-04T02:16:49;101881.75;;;-0.73;99.06
60345;BME280;46188;52.324;8.032;2023-04-04T02:19:14;101887.38;;;-0.79;98.93
60345;BME280;46188;52.324;8.032;2023-04-04T02:21:40;101887.63;;;-0.76;99.43
60345;BME280;46188;52.324;8.032;2023-04-04T02:24:05;101888.50;;;-0.76;99.97
60345;BME280;46188;52.324;8.032;2023-04-04T02:26:31;101883.72;;;-0.81;99.85
60345;BME280;46188;52.324;8.032;2023-04-04T02:28:56;101895.13;;;-0.79;99.78
60345;BME280;46188;52.324;8.032;2023-04-04T02:31:21;101893.69;;;-0.76;99.55
60345;BME280;46188;52.324;8.032;2023-04-04T02:33:46;101884.78;;;-0.79;99.58
60345;BME280;46188;52.324;8.032;2023-04-04T02:36:12;101888.00;;;-0.82;99.76
60345;BME280;46188;52.324;8.032;2023-04-04T02:38:37;101886.44;;;-0.80;99.74
60345;BME280;46188;52.324;8.032;2023-04-04T02:41:03;101883.84;;;-0.80;99.77
60345;BME280;46188;52.324;8.032;2023-04-04T02:43:28;101881.94;;;-0.82;99.91
60345;BME280;46188;52.324;8.032;2023-04-04T02:45:53;101876.69;;;-0.94;100.00
60345;BME280;46188;52.324;8.032;2023-04-04T02:48:19;101874.88;;;-0.95;100.00
60345;BME280;46188;52.324;8.032;2023-04-04T02:50:45;101872.16;;;-0.97;100.00
60345;BME280;46188;52.324;8.032;2023-04-04T02:53:10;101863.63;;;-0.96;100.00
60345;BME280;46188;52.324;8.032;2023-04-04T02:55:35;101857.19;;;-1.01;100.00
60345;BME280;46188;52.324;8.032;2023-04-04T02:58:01;101855.50;;;-1.00;100.00
60345;BME280;46188;52.324;8.032;2023-04-04T03:00:26;101856.00;;;-1.04;100.00
60345;BME280;46188;52.324;8.032;2023-04-04T03:02:53;101852.91;;;-1.00;100.00
60345;BME280;46188;52.324;8.032;2023-04-04T03:05:19;101850.06;;;-1.03;100.00
60345;BME280;46188;52.324;8.032;2023-04-04T03:07:45;101852.66;;;-1.03;100.00
60345;BME280;46188;52.324;8.032;2023-04-04T03:10:10;101847.91;;;-1.09;100.00
60345;BME280;46188;52.324;8.032;2023-04-04T03:12:35;101844.16;;;-1.13;100.00
60345;BME280;46188;52.324;8.032;2023-04-04T03:15:01;101849.88;;;-1.17;100.00
60345;BME280;46188;52.324;8.032;2023-04-04T03:17:27;101844.31;;;-1.21;100.00
60345;BME280;46188;52.324;8.032;2023-04-04T03:19:53;101845.88;;;-1.23;100.00
60345;BME280;46188;52.324;8.032;2023-04-04T03:22:18;101836.44;;;-1.23;100.00
60345;BME280;46188;52.324;8.032;2023-04-04T03:24:43;101840.72;;;-1.23;100.00
60345;BME280;46188;52.324;8.032;2023-04-04T03:27:09;101844.75;;;-1.27;100.00
60345;BME280;46188;52.324;8.032;2023-04-04T03:29:34;101838.63;;;-1.27;100.00
60345;BME280;46188;52.324;8.032;2023-04-04T03:31:59;101841.13;;;-1.29;100.00
60345;BME280;46188;52.324;8.032;2023-04-04T03:34:25;101841.34;;;-1.26;100.00
60345;BME280;46188;52.324;8.032;2023-04-04T03:36:51;101837.09;;;-1.25;100.00
60345;BME280;46188;52.324;8.032;2023-04-04T03:39:17;101838.25;;;-1.22;100.00
60345;BME280;46188;52.324;8.032;2023-04-04T03:41:42;101837.34;;;-1.22;100.00
60345;BME280;46188;52.324;8.032;2023-04-04T03:44:08;101840.84;;;-1.22;100.00
60345;BME280;46188;52.324;8.032;2023-04-04T03:46:33;101840.97;;;-1.20;100.00
60345;BME280;46188;52.324;8.032;2023-04-04T03:48:58;101834.78;;;-1.22;100.00
60345;BME280;46188;52.324;8.032;2023-04-04T03:51:24;101839.56;;;-1.27;100.00
60345;BME280;46188;52.324;8.032;2023-04-04T03:53:50;101828.84;;;-1.32;100.00
60345;BME280;46188;52.324;8.032;2023-04-04T03:56:15;101827.56;;;-1.37;100.00
60345;BME280;46188;52.324;8.032;2023-04-04T03:58:41;101828.34;;;-1.38;100.00
60345;BME280;46188;52.324;8.032;2023-04-04T04:01:06;101828.22;;;-1.39;100.00
60345;BME280;46188;52.324;8.032;2023-04-04T04:03:31;101819.31;;;-1.43;100.00
60345;BME280;46188;52.324;8.032;2023-04-04T04:05:58;101824.34;;;-1.44;100.00
60345;BME280;46188;52.324;8.032;2023-04-04T04:08:23;101824.34;;;-1.44;100.00
60345;BME280;46188;52.324;8.032;2023-04-04T04:10:48;101834.06;;;-1.42;100.00
60345;BME280;46188;52.324;8.032;2023-04-04T04:13:14;101828.22;;;-1.39;100.00
60345;BME280;46188;52.324;8.032;2023-04-04T04:15:39;101816.09;;;-1.40;100.00
60345;BME280;46188;52.324;8.032;2023-04-04T04:18:04;101820.19;;;-1.42;100.00
60345;BME280;46188;52.324;8.032;2023-04-04T04:20:30;101813.53;;;-1.51;100.00
60345;BME280;46188;52.324;8.032;2023-04-04T04:22:55;101813.03;;;-1.57;100.00
60345;BME280;46188;52.324;8.032;2023-04-04T04:25:20;101814.59;;;-1.59;100.00
60345;BME280;46188;52.324;8.032;2023-04-04T04:27:46;101809.16;;;-1.62;100.00
60345;BME280;46188;52.324;8.032;2023-04-04T04:30:11;101811.88;;;-1.60;100.00
60345;BME280;46188;52.324;8.032;2023-04-04T04:32:37;101813.03;;;-1.57;100.00
60345;BME280;46188;52.324;8.032;2023-04-04T04:35:02;101806.28;;;-1.55;100.00
60345;BME280;46188;52.324;8.032;2023-04-04T04:37:28;101807.44;;;-1.51;100.00
60345;BME280;46188;52.324;8.032;2023-04-04T04:39:53;101811.47;;;-1.55;100.00
60345;BME280;46188;52.324;8.032;2023-04-04T04:42:18;101807.72;;;-1.58;100.00
60345;BME280;46188;52.324;8.032;2023-04-04T04:44:44;101803.06;;;-1.62;100.00
60345;BME280;46188;52.324;8.032;2023-04-04T04:47:09;101810.06;;;-1.61;100.00
60345;BME280;46188;52.324;8.032;2023-04-04T04:49:34;101806.47;;;-1.63;100.00
60345;BME280;46188;52.324;8.032;2023-04-04T04:52:00;101806.97;;;-1.68;100.00
60345;BME280;46188;52.324;8.032;2023-04-04T04:54:26;101819.00;;;-1.68;100.00
60345;BME280;46188;52.324;8.032;2023-04-04T04:56:51;101814.72;;;-1.68;100.00
60345;BME280;46188;52.324;8.032;2023-04-04T04:59:17;101813.56;;;-1.71;100.00
60345;BME280;46188;52.324;8.032;2023-04-04T05:01:42;101820.06;;;-1.76;100.00
60345;BME280;46188;52.324;8.032;2023-04-04T05:04:07;101816.44;;;-1.78;100.00
60345;BME280;46188;52.324;8.032;2023-04-04T05:06:33;101818.50;;;-1.74;100.00
60345;BME280;46188;52.324;8.032;2023-04-04T05:08:58;101829.84;;;-1.72;100.00
60345;BME280;46188;52.324;8.032;2023-04-04T05:11:23;101839.56;;;-1.70;100.00
60345;BME280;46188;52.324;8.032;2023-04-04T05:13:49;101831.81;;;-1.70;100.00
60345;BME280;46188;52.324;8.032;2023-04-04T05:16:14;101830.66;;;-1.73;100.00
60345;BME280;46188;52.324;8.032;2023-04-04T05:18:39;101831.41;;;-1.74;100.00
60345;BME280;46188;52.324;8.032;2023-04-04T05:21:05;101835.81;;;-1.73;100.00
60345;BME280;46188;52.324;8.032;2023-04-04T05:23:30;101835.94;;;-1.72;100.00
60345;BME280;46188;52.324;8.032;2023-04-04T05:25:55;101839.16;;;-1.74;100.00
60345;BME280;46188;52.324;8.032;2023-04-04T05:28:21;101842.56;;;-1.75;100.00
60345;BME280;46188;52.324;8.032;2023-04-04T05:30:47;101835.69;;;-1.75;100.00
60345;BME280;46188;52.324;8.032;2023-04-04T05:33:12;101832.22;;;-1.75;100.00
60345;BME280;46188;52.324;8.032;2023-04-04T05:35:38;101839.44;;;-1.71;100.00
60345;BME280;46188;52.324;8.032;2023-04-04T05:38:05;101845.75;;;-1.68;100.00
60345;BME280;46188;52.324;8.032;2023-04-04T05:40:30;101842.13;;;-1.70;100.00
60345;BME280;46188;52.324;8.032;2023-04-04T05:42:56;101844.22;;;-1.65;100.00
60345;BME280;46188;52.324;8.032;2023-04-04T05:45:22;101849.88;;;-1.59;100.00
60345;BME280;46188;52.324;8.032;2023-04-04T05:47:48;101845.97;;;-1.54;100.00
60345;BME280;46188;52.324;8.032;2023-04-04T05:50:13;101859.97;;;-1.52;100.00
60345;BME280;46188;52.324;8.032;2023-04-04T05:52:38;101857.59;;;-1.49;100.00
60345;BME280;46188;52.324;8.032;2023-04-04T05:55:04;101862.91;;;-1.48;100.00
60345;BME280;46188;52.324;8.032;2023-04-04T05:57:30;101854.63;;;-1.43;100.00
60345;BME280;46188;52.324;8.032;2023-04-04T05:59:56;101857.59;;;-1.39;100.00
60345;BME280;46188;52.324;8.032;2023-04-04T06:02:22;101855.91;;;-1.38;100.00
60345;BME280;46188;52.324;8.032;2023-04-04T06:04:47;101864.69;;;-1.36;100.00
60345;BME280;46188;52.324;8.032;2023-04-04T06:07:12;101863.25;;;-1.33;100.00
60345;BME280;46188;52.324;8.032;2023-04-04T06:09:38;101864.41;;;-1.29;100.00
60345;BME280;46188;52.324;8.032;2023-04-04T06:12:04;101868.03;;;-1.27;100.00
60345;BME280;46188;52.324;8.032;2023-04-04T06:14:30;101872.66;;;-1.23;100.00
60345;BME280;46188;52.324;8.032;2023-04-04T06:16:56;101875.63;;;-1.18;100.00
60345;BME280;46188;52.324;8.032;2023-04-04T06:19:21;101868.88;;;-1.16;100.00
60345;BME280;46188;52.324;8.032;2023-04-04T06:21:46;101874.19;;;-1.15;100.00
60345;BME280;46188;52.324;8.032;2023-04-04T06:24:11;101865.09;;;-1.09;100.00
60345;BME280;46188;52.324;8.032;2023-04-04T06:26:38;101870.53;;;-1.06;100.00
60345;BME280;46188;52.324;8.032;2023-04-04T06:31:19;101872.59;;;-1.02;100.00
60345;BME280;46188;52.324;8.032;2023-04-04T06:33:45;101876.44;;;-0.97;100.00
60345;BME280;46188;52.324;8.032;2023-04-04T06:36:10;101875.13;;;-0.92;100.00
60345;BME280;46188;52.324;8.032;2023-04-04T06:38:36;101863.31;;;-0.88;100.00
60345;BME280;46188;52.324;8.032;2023-04-04T06:41:01;101868.75;;;-0.85;100.00
60345;BME280;46188;52.324;8.032;2023-04-04T06:43:27;101876.88;;;-0.81;100.00
60345;BME280;46188;52.324;8.032;2023-04-04T06:45:52;101874.88;;;-0.73;100.00
60345;BME280;46188;52.324;8.032;2023-04-04T06:48:18;101876.06;;;-0.69;100.00
60345;BME280;46188;52.324;8.032;2023-04-04T06:50:43;101873.94;;;-0.63;100.00
60345;BME280;46188;52.324;8.032;2023-04-04T06:53:08;101877.13;;;-0.56;100.00
60345;BME280;46188;52.324;8.032;2023-04-04T06:55:34;101877.88;;;-0.46;100.00
60345;BME280;46188;52.324;8.032;2023-04-04T06:57:59;101868.31;;;-0.35;100.00
60345;BME280;46188;52.324;8.032;2023-04-04T07:00:24;101865.66;;;-0.25;100.00
60345;BME280;46188;52.324;8.032;2023-04-04T07:02:58;101867.50;;;-0.12;100.00
60345;BME280;46188;52.324;8.032;2023-04-04T07:05:24;101870.22;;;0.01;100.00
60345;BME280;46188;52.324;8.032;2023-04-04T07:07:54;101874.56;;;0.12;100.00
60345;BME280;46188;52.324;8.032;2023-04-04T07:10:23;101875.34;;;0.23;100.00
60345;BME280;46188;52.324;8.032;2023-04-04T07:12:48;101869.28;;;0.34;100.00
60345;BME280;46188;52.324;8.032;2023-04-04T07:15:15;101869.50;;;0.49;100.00
60345;BME280;46188;52.324;8.032;2023-04-04T07:17:40;101870.44;;;0.62;100.00
60345;BME280;46188;52.324;8.032;2023-04-04T07:20:06;101868.38;;;0.69;100.00
60345;BME280;46188;52.324;8.032;2023-04-04T07:22:32;101868.28;;;0.80;100.00
60345;BME280;46188;52.324;8.032;2023-04-04T07:25:00;101873.81;;;0.96;100.00
60345;BME280;46188;52.324;8.032;2023-04-04T07:27:26;101875.44;;;1.07;100.00
60345;BME280;46188;52.324;8.032;2023-04-04T07:29:51;101875.34;;;1.18;100.00
60345;BME280;46188;52.324;8.032;2023-04-04T07:32:17;101876.97;;;1.29;99.47
60345;BME280;46188;52.324;8.032;2023-04-04T07:34:42;101873.22;;;1.37;98.54
60345;BME280;46188;52.324;8.032;2023-04-04T07:37:08;101875.50;;;1.44;98.04
60345;BME280;46188;52.324;8.032;2023-04-04T07:39:33;101864.94;;;1.55;97.88
60345;BME280;46188;52.324;8.032;2023-04-04T07:41:59;101869.09;;;1.64;97.15
60345;BME280;46188;52.324;8.032;2023-04-04T07:44:24;101861.91;;;1.74;96.43
60345;BME280;46188;52.324;8.032;2023-04-04T07:46:49;101862.44;;;1.81;95.31
60345;BME280;46188;52.324;8.032;2023-04-04T07:49:14;101856.84;;;1.89;93.18
60345;BME280;46188;52.324;8.032;2023-04-04T07:51:40;101858.28;;;1.97;93.22
60345;BME280;46188;52.324;8.032;2023-04-04T07:54:05;101857.06;;;2.17;93.39
60345;BME280;46188;52.324;8.032;2023-04-04T07:56:31;101855.97;;;2.40;92.41
60345;BME280;46188;52.324;8.032;2023-04-04T07:58:56;101849.75;;;2.65;91.28
60345;BME280;46188;52.324;8.032;2023-04-04T08:01:21;101852.28;;;2.90;91.09
60345;BME280;46188;52.324;8.032;2023-04-04T08:03:46;101859.22;;;3.18;89.27
60345;BME280;46188;52.324;8.032;2023-04-04T08:06:14;101848.66;;;3.43;87.72
60345;BME280;46188;52.324;8.032;2023-04-04T08:08:39;101843.13;;;3.66;86.95
60345;BME280;46188;52.324;8.032;2023-04-04T08:11:05;101842.97;;;3.78;84.31
60345;BME280;46188;52.324;8.032;2023-04-04T08:13:30;101849.66;;;3.88;84.42
60345;BME280;46188;52.324;8.032;2023-04-04T08:15:55;101847.94;;;4.03;84.19
60345;BME280;46188;52.324;8.032;2023-04-04T08:18:21;101840.31;;;4.21;84.22
60345;BME280;46188;52.324;8.032;2023-04-04T08:20:46;101842.31;;;4.40;82.69
60345;BME280;46188;52.324;8.032;2023-04-04T08:23:11;101844.34;;;4.61;82.55
60345;BME280;46188;52.324;8.032;2023-04-04T08:25:38;101849.13;;;4.85;82.23
60345;BME280;46188;52.324;8.032;2023-04-04T08:28:03;101844.13;;;5.04;81.99
60345;BME280;46188;52.324;8.032;2023-04-04T08:30:29;101839.91;;;5.23;81.21
60345;BME280;46188;52.324;8.032;2023-04-04T08:32:54;101844.28;;;5.39;80.85
60345;BME280;46188;52.324;8.032;2023-04-04T08:35:20;101839.06;;;5.55;79.86
60345;BME280;46188;52.324;8.032;2023-04-04T08:37:45;101834.47;;;5.67;78.56
60345;BME280;46188;52.324;8.032;2023-04-04T08:40:11;101827.19;;;5.78;78.36
60345;BME280;46188;52.324;8.032;2023-04-04T08:42:39;101835.50;;;5.87;77.27
60345;BME280;46188;52.324;8.032;2023-04-04T08:45:06;101835.91;;;5.95;76.17
60345;BME280;46188;52.324;8.032;2023-04-04T08:47:33;101843.13;;;6.16;75.45
60345;BME280;46188;52.324;8.032;2023-04-04T08:50:06;101840.66;;;6.37;75.27
60345;BME280;46188;52.324;8.032;2023-04-04T08:52:32;101838.44;;;6.44;73.77
60345;BME280;46188;52.324;8.032;2023-04-04T08:54:59;101838.19;;;6.40;71.82
60345;BME280;46188;52.324;8.032;2023-04-04T08:57:25;101835.28;;;6.52;72.72
60345;BME280;46188;52.324;8.032;2023-04-04T08:59:51;101842.25;;;6.69;71.84
60345;BME280;46188;52.324;8.032;2023-04-04T09:02:22;101845.31;;;6.78;71.06
60345;BME280;46188;52.324;8.032;2023-04-04T09:04:51;101835.38;;;6.89;70.35
60345;BME280;46188;52.324;8.032;2023-04-04T09:07:16;101842.84;;;6.99;68.88
60345;BME280;46188;52.324;8.032;2023-04-04T09:09:45;101843.06;;;7.04;66.54
60345;BME280;46188;52.324;8.032;2023-04-04T09:12:12;101836.63;;;6.97;65.99
60345;BME280;46188;52.324;8.032;2023-04-04T09:14:38;101833.28;;;7.19;65.69
60345;BME280;46188;52.324;8.032;2023-04-04T09:17:04;101826.25;;;7.38;65.49
60345;BME280;46188;52.324;8.032;2023-04-04T09:19:29;101830.19;;;7.48;64.69
60345;BME280;46188;52.324;8.032;2023-04-04T09:21:56;101817.84;;;7.65;64.41
60345;BME280;46188;52.324;8.032;2023-04-04T09:24:22;101820.72;;;7.90;64.13
60345;BME280;46188;52.324;8.032;2023-04-04T09:26:52;101814.00;;;7.97;62.85
60345;BME280;46188;52.324;8.032;2023-04-04T09:29:18;101818.19;;;8.13;62.47
60345;BME280;46188;52.324;8.032;2023-04-04T09:31:44;101811.78;;;8.06;61.52
60345;BME280;46188;52.324;8.032;2023-04-04T09:34:19;101816.00;;;8.03;60.61
60345;BME280;46188;52.324;8.032;2023-04-04T09:36:45;101821.13;;;8.21;60.82
60345;BME280;46188;52.324;8.032;2023-04-04T09:39:12;101809.66;;;8.19;59.73
60345;BME280;46188;52.324;8.032;2023-04-04T09:41:40;101806.91;;;8.37;59.73
60345;BME280;46188;52.324;8.032;2023-04-04T09:44:06;101813.13;;;8.39;59.11
60345;BME280;46188;52.324;8.032;2023-04-04T09:46:35;101803.09;;;8.49;58.56
60345;BME280;46188;52.324;8.032;2023-04-04T09:49:01;101800.25;;;8.66;58.66
60345;BME280;46188;52.324;8.032;2023-04-04T09:51:37;101796.88;;;8.91;58.71
60345;BME280;46188;52.324;8.032;2023-04-04T09:54:03;101801.09;;;9.10;57.95
60345;BME280;46188;52.324;8.032;2023-04-04T09:56:32;101803.19;;;9.19;57.71
60345;BME280;46188;52.324;8.032;2023-04-04T09:58:58;101794.81;;;9.29;57.19
60345;BME280;46188;52.324;8.032;2023-04-04T10:01:24;101798.56;;;9.13;56.04
60345;BME280;46188;52.324;8.032;2023-04-04T10:03:53;101804.03;;;9.18;55.43
60345;BME280;46188;52.324;8.032;2023-04-04T10:06:20;101793.09;;;9.07;54.49
60345;BME280;46188;52.324;8.032;2023-04-04T10:08:47;101793.31;;;9.13;55.28
60345;BME280;46188;52.324;8.032;2023-04-04T10:11:27;101792.00;;;9.49;55.42
60345;BME280;46188;52.324;8.032;2023-04-04T10:13:52;101790.16;;;9.70;55.25
60345;BME280;46188;52.324;8.032;2023-04-04T10:16:18;101794.44;;;9.67;54.41
60345;BME280;46188;52.324;8.032;2023-04-04T10:18:44;101792.84;;;9.48;53.92
60345;BME280;46188;52.324;8.032;2023-04-04T10:21:09;101785.94;;;9.51;53.75
60345;BME280;46188;52.324;8.032;2023-04-04T10:23:35;101785.34;;;9.58;53.62
60345;BME280;46188;52.324;8.032;2023-04-04T10:26:01;101778.88;;;9.74;53.63
60345;BME280;46188;52.324;8.032;2023-04-04T10:28:27;101784.97;;;9.23;53.62
60345;BME280;46188;52.324;8.032;2023-04-04T10:31:15;101770.50;;;8.90;54.96
60345;BME280;46188;52.324;8.032;2023-04-04T10:37:07;101767.38;;;9.22;54.19
60345;BME280;46188;52.324;8.032;2023-04-04T10:39:37;101773.03;;;9.57;53.55
60345;BME280;46188;52.324;8.032;2023-04-04T10:42:05;101767.97;;;9.64;52.55
60345;BME280;46188;52.324;8.032;2023-04-04T10:44:37;101769.84;;;9.42;53.22
60345;BME280;46188;52.324;8.032;2023-04-04T10:47:17;101763.72;;;9.67;53.46
60345;BME280;46188;52.324;8.032;2023-04-04T10:49:46;101761.47;;;10.04;52.73
60345;BME280;46188;52.324;8.032;2023-04-04T10:52:18;101764.50;;;10.16;52.47
60345;BME280;46188;52.324;8.032;2023-04-04T10:54:44;101759.44;;;10.22;52.24
60345;BME280;46188;52.324;8.032;2023-04-04T10:57:11;101763.38;;;10.09;51.46
60345;BME280;46188;52.324;8.032;2023-04-04T10:59:57;101754.53;;;10.07;50.58
60345;BME280;46188;52.324;8.032;2023-04-04T11:05:14;101749.34;;;10.34;50.90
60345;BME280;46188;52.324;8.032;2023-04-04T11:07:43;101744.09;;;10.63;50.02
60345;BME280;46188;52.324;8.032;2023-04-04T11:10:14;101744.44;;;10.76;50.07
60345;BME280;46188;52.324;8.032;2023-04-04T11:12:44;101746.31;;;10.78;49.51
60345;BME280;46188;52.324;8.032;2023-04-04T11:15:11;101734.53;;;10.67;48.99
60345;BME280;46188;52.324;8.032;2023-04-04T11:20:21;101737.31;;;10.43;50.35
60345;BME280;46188;52.324;8.032;2023-04-04T13:06:14;101619.00;;;11.16;43.80
60345;BME280;46188;52.324;8.032;2023-04-04T13:09:00;101612.13;;;11.22;43.80
60345;BME280;46188;52.324;8.032;2023-04-04T13:11:58;101616.31;;;11.14;44.17
60345;BME280;46188;52.324;8.032;2023-04-04T13:15:12;101605.69;;;11.13;43.80
60345;BME280;46188;52.324;8.032;2023-04-04T13:17:12;101595.88;;;10.75;43.06
60345;BME280;46188;52.324;8.032;2023-04-04T13:19:38;101598.81;;;10.86;43.82
60345;BME280;46188;52.324;8.032;2023-04-04T13:22:07;101597.53;;;11.03;43.36
60345;BME280;46188;52.324;8.032;2023-04-04T13:24:32;101590.78;;;11.15;43.81
60345;BME280;46188;52.324;8.032;2023-04-04T13:26:57;101583.13;;;11.24;43.60
60345;BME280;46188;52.324;8.032;2023-04-04T13:29:23;101585.09;;;11.33;44.13
60345;BME280;46188;52.324;8.032;2023-04-04T13:31:49;101589.00;;;11.47;43.93
60345;BME280;46188;52.324;8.032;2023-04-04T13:34:16;101585.44;;;11.47;43.05
60345;BME280;46188;52.324;8.032;2023-04-04T13:36:41;101571.06;;;11.35;42.54
60345;BME280;46188;52.324;8.032;2023-04-04T13:39:08;101585.31;;;11.40;42.52
60345;BME280;46188;52.324;8.032;2023-04-04T13:41:33;101573.13;;;11.45;42.51
60345;BME280;46188;52.324;8.032;2023-04-04T13:43:58;101571.25;;;11.41;42.29
60345;BME280;46188;52.324;8.032;2023-04-04T13:46:23;101567.84;;;11.45;42.17
60345;BME280;46188;52.324;8.032;2023-04-04T13:48:49;101567.22;;;11.56;42.66
60345;BME280;46188;52.324;8.032;2023-04-04T13:51:14;101562.81;;;11.56;42.04
60345;BME280;46188;52.324;8.032;2023-04-04T13:53:39;101561.06;;;11.22;41.80
60345;BME280;46188;52.324;8.032;2023-04-04T13:56:05;101563.16;;;11.35;42.66
60345;BME280;46188;52.324;8.032;2023-04-04T13:58:31;101560.91;;;11.51;42.63
60345;BME280;46188;52.324;8.032;2023-04-04T14:00:57;101551.19;;;11.50;42.08
60345;BME280;46188;52.324;8.032;2023-04-04T14:03:22;101555.56;;;11.48;41.76
60345;BME280;46188;52.324;8.032;2023-04-04T14:05:47;101550.19;;;11.44;42.29
60345;BME280;46188;52.324;8.032;2023-04-04T14:08:13;101540.78;;;11.56;42.67
60345;BME280;46188;52.324;8.032;2023-04-04T14:10:38;101542.72;;;11.63;42.88
60345;BME280;46188;52.324;8.032;2023-04-04T14:13:03;101536.59;;;11.64;42.69
60345;BME280;46188;52.324;8.032;2023-04-04T14:15:29;101536.88;;;11.76;42.52
60345;BME280;46188;52.324;8.032;2023-04-04T14:17:55;101530.97;;;11.87;42.43
60345;BME280;46188;52.324;8.032;2023-04-04T14:20:20;101529.34;;;11.92;42.49
60345;BME280;46188;52.324;8.032;2023-04-04T14:22:45;101527.59;;;11.92;42.21
60345;BME280;46188;52.324;8.032;2023-04-04T14:25:10;101518.84;;;11.96;42.42
60345;BME280;46188;52.324;8.032;2023-04-04T14:27:36;101524.88;;;11.91;41.88
60345;BME280;46188;52.324;8.032;2023-04-04T14:30:01;101517.53;;;11.77;41.56
60345;BME280;46188;52.324;8.032;2023-04-04T14:32:26;101520.09;;;11.74;42.28
60345;BME280;46188;52.324;8.032;2023-04-04T14:34:52;101518.41;;;11.78;42.34
60345;BME280;46188;52.324;8.032;2023-04-04T14:37:17;101507.00;;;11.79;41.94
60345;BME280;46188;52.324;8.032;2023-04-04T14:39:42;101514.09;;;11.81;42.48
60345;BME280;46188;52.324;8.032;2023-04-04T14:42:07;101514.09;;;11.81;42.19